Time;durP1;ratioP1;P1;durP2;ratioP2;P2;SDS_P1;SDS_P2;PMS_P1;PMS_P2;Temp;Humidity;BMP_temperature;BMP_pressure;BME280_temperature;BME280_humidity;BME280_pressure;Samples;Min_cycle;Max_cycle;Signal;HPM_P1;HPM_P2
2022/04/19 00:00:26;;;;;;;13.40;8.25;;;;;;;7.83;47.95;99302.09;5031056;28;20466;-88
2022/04/19 00:02:52;;;;;;;12.88;8.70;;;;;;;7.82;48.15;99300.41;5050600;28;20068;-87
2022/04/19 00:05:17;;;;;;;12.32;8.38;;;;;;;7.70;48.40;99288.78;5050879;28;20029;-85
2022/04/19 00:07:44;;;;;;;13.90;8.38;;;;;;;7.70;48.26;99293.97;5033945;28;20060;-86
2022/04/19 00:10:09;;;;;;;14.95;9.10;;;;;;;7.67;49.32;99293.28;5050457;28;20114;-84
2022/04/19 00:12:35;;;;;;;13.52;8.10;;;;;;;7.64;49.84;99291.63;5050425;28;20480;-86
2022/04/19 00:15:01;;;;;;;17.17;8.30;;;;;;;7.65;49.92;99305.44;5034093;28;20029;-88
2022/04/19 00:17:26;;;;;;;15.27;8.77;;;;;;;7.60;50.23;99299.59;5033811;28;20025;-87
2022/04/19 00:19:52;;;;;;;12.82;8.07;;;;;;;7.41;49.96;99273.56;5087992;28;20044;-87
2022/04/19 00:22:18;;;;;;;12.63;8.77;;;;;;;7.49;50.11;99289.66;5075180;28;20387;-87
2022/04/19 00:24:43;;;;;;;14.80;7.82;;;;;;;7.56;50.30;99303.22;5074980;28;20103;-87
2022/04/19 00:27:09;;;;;;;13.50;8.35;;;;;;;7.43;50.52;99276.94;5074908;28;20031;-79
2022/04/19 00:29:34;;;;;;;13.27;8.32;;;;;;;7.48;50.47;99287.97;5074774;28;20020;-79
2022/04/19 00:31:59;;;;;;;17.02;8.38;;;;;;;7.39;50.72;99271.03;5092913;28;20572;-80
2022/04/19 00:34:25;;;;;;;12.98;8.57;;;;;;;7.46;51.10;99274.25;5075042;28;20016;-80
2022/04/19 00:36:50;;;;;;;11.93;8.18;;;;;;;7.49;51.33;99287.91;5074722;28;20391;-80
2022/04/19 00:39:16;;;;;;;14.73;9.35;;;;;;;7.46;51.71;99282.84;5092859;28;20048;-80
2022/04/19 00:41:41;;;;;;;16.25;9.63;;;;;;;7.45;51.54;99282.91;5092707;28;20020;-80
2022/04/19 00:44:07;;;;;;;17.83;10.27;;;;;;;7.35;51.32;99260.84;5074049;28;20394;-80
2022/04/19 00:46:33;;;;;;;14.75;9.45;;;;;;;7.32;51.60;99266.16;5092461;28;20020;-80
2022/04/19 00:48:59;;;;;;;20.10;10.13;;;;;;;7.31;52.02;99265.31;5092954;28;20055;-80
2022/04/19 00:51:24;;;;;;;16.08;9.45;;;;;;;7.34;52.42;99270.38;5074731;28;20119;-80
2022/04/19 00:53:50;;;;;;;17.30;10.10;;;;;;;7.31;52.81;99269.66;5092696;28;20103;-80
2022/04/19 00:56:16;;;;;;;15.02;9.60;;;;;;;7.23;52.76;99262.19;5092824;28;20100;-80
2022/04/19 00:58:41;;;;;;;15.30;9.20;;;;;;;7.19;53.18;99256.28;5092533;28;20097;-79
2022/04/19 01:01:07;;;;;;;14.57;8.95;;;;;;;7.15;53.02;99243.50;5092479;28;20467;-80
2022/04/19 01:03:32;;;;;;;18.65;9.35;;;;;;;7.17;53.17;99260.69;5092467;28;20020;-80
2022/04/19 01:05:59;;;;;;;13.13;8.25;;;;;;;7.15;53.81;99261.63;5092577;28;20081;-79
2022/04/19 01:08:25;;;;;;;17.63;9.10;;;;;;;6.94;53.88;99238.25;5092543;28;20445;-80
2022/04/19 01:13:17;;;;;;;15.73;8.88;;;;;;;6.93;53.92;99240.91;5091870;28;20071;-79
2022/04/19 01:13:36;;;;;;;12.65;8.35;;;;;;;6.85;54.19;99240.34;5091910;28;20032;-80
2022/04/19 01:16:02;;;;;;;12.85;8.40;;;;;;;6.87;54.87;99254.06;5092506;28;20030;-79
2022/04/19 01:18:29;;;;;;;14.88;8.70;;;;;;;6.86;54.81;99260.16;5092394;28;20024;-79
2022/04/19 01:20:55;;;;;;;16.08;8.02;;;;;;;6.84;54.94;99251.63;5092124;28;20031;-79
2022/04/19 01:23:22;;;;;;;11.68;8.18;;;;;;;6.77;54.89;99242.38;5092263;28;20423;-79
2022/04/19 01:25:48;;;;;;;11.80;7.60;;;;;;;6.72;54.92;99234.78;5091887;28;20060;-79
2022/04/19 01:28:14;;;;;;;12.05;8.18;;;;;;;6.68;55.55;99230.63;5092081;28;20058;-79
2022/04/19 01:30:42;;;;;;;13.85;8.15;;;;;;;6.66;55.21;99227.28;5091780;28;20042;-79
2022/04/19 01:33:07;;;;;;;12.07;7.75;;;;;;;6.65;55.22;99236.75;5092175;28;20020;-79
2022/04/19 01:35:33;;;;;;;13.93;7.93;;;;;;;6.66;55.66;99242.81;5073654;28;20113;-79
2022/04/19 01:37:58;;;;;;;11.98;7.60;;;;;;;6.59;55.70;99233.56;5092083;28;20031;-79
2022/04/19 01:40:24;;;;;;;14.55;8.10;;;;;;;6.57;55.75;99231.03;5091979;28;20035;-80
2022/04/19 01:42:52;;;;;;;12.77;7.45;;;;;;;6.53;55.44;99226.88;5073329;28;20035;-79
2022/04/19 01:45:19;;;;;;;13.90;7.75;;;;;;;6.55;55.49;99230.25;5092126;28;20059;-79
2022/04/19 01:47:45;;;;;;;15.80;7.63;;;;;;;6.56;55.40;99241.44;5091807;28;20024;-79
2022/04/19 01:50:13;;;;;;;11.70;6.97;;;;;;;6.53;55.19;99245.00;5092000;28;20464;-79
2022/04/19 01:52:39;;;;;;;11.80;8.15;;;;;;;6.48;55.55;99237.38;5091684;28;20024;-79
2022/04/19 01:55:07;;;;;;;9.93;7.07;;;;;;;6.42;55.52;99223.84;5091599;28;20024;-79
2022/04/19 01:57:33;;;;;;;9.45;6.60;;;;;;;6.46;55.73;99233.19;5077500;28;20165;-80
2022/04/19 01:59:59;;;;;;;12.27;7.93;;;;;;;6.45;55.71;99237.50;5096235;28;20032;-79
2022/04/19 02:02:24;;;;;;;11.48;7.45;;;;;;;6.40;55.52;99225.63;5096043;28;20103;-79
2022/04/19 02:04:53;;;;;;;8.88;6.35;;;;;;;6.36;55.41;99227.50;5095919;28;20055;-79
2022/04/19 02:07:18;;;;;;;11.25;6.82;;;;;;;6.45;55.37;99247.03;5096128;28;20039;-79
2022/04/19 02:09:44;;;;;;;12.48;7.63;;;;;;;6.38;55.44;99238.63;5095508;28;20487;-79
2022/04/19 02:12:09;;;;;;;11.27;6.60;;;;;;;6.25;55.24;99214.09;5095697;28;20174;-79
2022/04/19 02:14:35;;;;;;;10.95;7.15;;;;;;;6.27;55.68;99225.22;5077461;28;20024;-79
2022/04/19 02:17:01;;;;;;;12.30;7.22;;;;;;;6.25;56.03;99230.47;5095807;28;20020;-79
2022/04/19 02:19:26;;;;;;;11.80;7.03;;;;;;;6.21;55.53;99228.88;5095657;28;20028;-79
2022/04/19 02:21:52;;;;;;;10.75;7.15;;;;;;;6.05;55.44;99222.56;5077144;28;20024;-79
2022/04/19 02:24:17;;;;;;;10.68;7.28;;;;;;;6.07;55.72;99228.53;5095520;28;20031;-79
2022/04/19 02:26:42;;;;;;;11.60;6.93;;;;;;;5.96;54.83;99221.13;5095224;28;20089;-81
2022/04/19 02:29:08;;;;;;;12.05;6.93;;;;;;;5.98;55.17;99223.66;5077488;28;20506;-81
2022/04/19 02:31:33;;;;;;;11.30;6.80;;;;;;;5.94;55.54;99214.31;5095620;28;20417;-80
2022/04/19 02:33:58;;;;;;;9.15;5.80;;;;;;;5.88;55.94;99202.44;5077029;28;20433;-80
2022/04/19 02:36:27;;;;;;;10.15;6.80;;;;;;;5.91;56.41;99217.00;5095721;28;20111;-81
2022/04/19 02:38:52;;;;;;;8.77;5.85;;;;;;;5.92;56.94;99216.97;5095128;28;20028;-81
2022/04/19 02:41:18;;;;;;;9.65;6.47;;;;;;;5.81;56.82;99193.19;5076938;28;20473;-81
2022/04/19 02:43:43;;;;;;;14.52;6.68;;;;;;;5.86;57.09;99212.00;5095119;28;20119;-80
2022/04/19 02:46:09;;;;;;;11.68;7.07;;;;;;;5.81;56.81;99205.28;5077026;28;20093;-79
2022/04/19 02:48:34;;;;;;;9.43;6.85;;;;;;;5.74;56.52;99196.91;5095238;28;20028;-79
2022/04/19 02:51:00;;;;;;;8.70;6.00;;;;;;;5.80;56.44;99212.19;5094930;28;20028;-79
2022/04/19 02:53:26;;;;;;;9.30;6.72;;;;;;;5.73;56.27;99210.69;5076732;28;20089;-79
2022/04/19 02:55:51;;;;;;;11.95;7.07;;;;;;;5.61;56.34;99190.47;5076451;28;20028;-80
2022/04/19 02:58:17;;;;;;;11.52;7.43;;;;;;;5.55;56.18;99195.81;5076955;28;20452;-80
2022/04/19 03:00:43;;;;;;;11.93;7.03;;;;;;;5.61;56.40;99205.97;5094855;28;20375;-80
2022/04/19 03:03:09;;;;;;;11.13;6.65;;;;;;;5.57;57.03;99200.06;5076595;28;20028;-80
2022/04/19 03:05:38;;;;;;;9.55;6.22;;;;;;;5.50;56.90;99191.66;5094732;28;20035;-79
2022/04/19 03:08:03;;;;;;;12.05;7.18;;;;;;;5.56;56.88;99197.50;5075606;28;20391;-80
2022/04/19 03:10:29;;;;;;;11.98;6.90;;;;;;;5.50;56.31;99190.81;5076272;28;20040;-80
2022/04/19 03:12:54;;;;;;;10.98;6.10;;;;;;;5.46;56.30;99191.81;5094486;28;20484;-80
2022/04/19 03:15:20;;;;;;;7.63;5.70;;;;;;;5.46;55.96;99189.22;5094731;28;20034;-80
2022/04/19 03:17:45;;;;;;;10.88;6.13;;;;;;;5.47;56.24;99203.81;5094446;28;20020;-79
2022/04/19 03:20:11;;;;;;;12.02;6.50;;;;;;;5.35;56.00;99180.97;5094610;28;20031;-80
2022/04/19 03:28:05;;;;;;;9.05;5.78;;;;;;;5.34;56.08;99189.63;5094737;28;20395;-79
2022/04/19 03:30:30;;;;;;;10.13;5.88;;;;;;;5.25;56.03;99180.44;5094337;28;20032;-80
2022/04/19 03:32:56;;;;;;;7.20;5.20;;;;;;;5.15;56.06;99171.31;5093973;28;20024;-79
2022/04/19 03:35:21;;;;;;;12.13;6.07;;;;;;;5.14;56.29;99185.97;5075984;28;20024;-79
2022/04/19 03:37:47;;;;;;;6.82;5.28;;;;;;;5.07;56.27;99192.22;5094372;28;20471;-80
2022/04/19 03:40:13;;;;;;;9.20;5.90;;;;;;;5.04;56.79;99191.47;5076131;28;20028;-79
2022/04/19 03:42:42;;;;;;;9.45;6.32;;;;;;;4.97;56.88;99177.88;5094130;28;20043;-80
2022/04/19 03:45:09;;;;;;;11.27;5.50;;;;;;;4.88;57.06;99173.88;5094134;28;20052;-79
2022/04/19 03:47:35;;;;;;;7.65;5.18;;;;;;;4.87;56.95;99173.91;5094006;28;20027;-79
2022/04/19 03:50:01;;;;;;;9.65;5.63;;;;;;;4.80;57.53;99165.50;5093647;28;20112;-79
2022/04/19 03:52:27;;;;;;;8.07;5.57;;;;;;;4.69;57.20;99165.03;5094072;28;20059;-79
2022/04/19 03:54:52;;;;;;;9.38;5.80;;;;;;;4.63;57.51;99165.19;5093749;28;20028;-80
2022/04/19 03:57:18;;;;;;;8.43;5.70;;;;;;;4.61;57.74;99167.81;5094178;28;20032;-79
2022/04/19 03:59:44;;;;;;;9.02;5.90;;;;;;;4.63;57.78;99176.34;5093560;28;20038;-79
2022/04/19 04:02:10;;;;;;;9.07;5.28;;;;;;;4.60;58.03;99170.47;5075464;28;20016;-79
2022/04/19 04:04:36;;;;;;;7.95;5.30;;;;;;;4.50;58.20;99157.81;5093549;28;20058;-80
2022/04/19 04:07:06;;;;;;;7.30;5.45;;;;;;;4.56;58.66;99167.13;5093640;28;20028;-80
2022/04/19 04:09:33;;;;;;;8.00;5.67;;;;;;;4.57;58.61;99163.66;5075134;28;20058;-80
2022/04/19 04:12:09;;;;;;;9.68;5.90;;;;;;;4.58;58.68;99162.75;5093140;28;20749;-80
2022/04/19 04:14:35;;;;;;;13.15;9.35;;;;;;;4.67;58.93;99177.09;5075200;28;20475;-80
2022/04/19 04:17:02;;;;;;;10.50;6.07;;;;;;;4.67;58.46;99170.19;5074896;28;20067;-80
2022/04/19 04:19:27;;;;;;;9.65;6.57;;;;;;;4.65;58.33;99173.75;5093513;28;20107;-80
2022/04/19 04:21:53;;;;;;;10.90;8.00;;;;;;;4.71;58.59;99186.44;5093169;28;20123;-81
2022/04/19 04:24:18;;;;;;;15.65;10.65;;;;;;;4.66;58.58;99181.41;5093385;28;20379;-80
2022/04/19 04:26:44;;;;;;;10.25;7.03;;;;;;;4.61;58.61;99166.97;5092996;28;20035;-80
2022/04/19 04:29:09;;;;;;;8.85;5.90;;;;;;;4.72;58.64;99181.25;5075019;28;20428;-80
2022/04/19 04:31:35;;;;;;;9.95;5.28;;;;;;;4.66;58.50;99173.69;5093081;28;20084;-80
2022/04/19 04:34:00;;;;;;;9.00;5.65;;;;;;;4.79;58.46;99191.38;5093109;28;20030;-79
2022/04/19 04:36:26;;;;;;;7.65;5.88;;;;;;;4.88;58.27;99178.19;5075023;28;20034;-79
2022/04/19 04:38:51;;;;;;;7.57;5.13;;;;;;;4.91;58.19;99176.34;5092950;28;20031;-80
2022/04/19 04:41:17;;;;;;;9.13;5.28;;;;;;;5.03;58.30;99179.44;5074660;28;20424;-80
2022/04/19 04:43:43;;;;;;;8.25;5.75;;;;;;;4.94;58.16;99159.94;5092678;28;20425;-79
2022/04/19 04:51:37;;;;;;;9.20;6.00;;;;;;;5.21;57.85;99174.53;5092803;28;20047;-79
2022/04/19 04:54:02;;;;;;;11.02;6.07;;;;;;;5.11;57.68;99138.75;5092609;28;20024;-78
2022/04/19 04:56:28;;;;;;;9.18;5.32;;;;;;;5.08;57.34;99149.16;5092615;28;20032;-78
2022/04/19 04:58:53;;;;;;;11.13;5.28;;;;;;;5.15;57.82;99169.59;5092557;28;20040;-80
2022/04/19 05:01:19;;;;;;;8.93;6.10;;;;;;;5.07;57.68;99175.88;5092650;28;20024;-79
2022/04/19 05:03:45;;;;;;;9.18;6.43;;;;;;;4.87;58.43;99182.50;5092742;28;20433;-79
2022/04/19 05:06:10;;;;;;;10.98;7.03;;;;;;;4.96;61.02;99199.44;5074389;28;20024;-86
2022/04/19 05:08:36;;;;;;;9.65;7.70;;;;;;;5.10;60.92;99188.66;5092530;28;20035;-86
2022/04/19 05:11:01;;;;;;;14.73;8.25;;;;;;;5.31;59.90;99180.25;5070381;28;20045;-86
2022/04/19 05:13:26;;;;;;;13.90;9.38;;;;;;;5.42;58.99;99178.16;5072009;28;20028;-86
2022/04/19 05:15:52;;;;;;;22.52;12.98;;;;;;;5.57;58.69;99189.72;5070962;28;20107;-87
2022/04/19 05:18:17;;;;;;;15.43;9.20;;;;;;;5.53;59.03;99185.56;5070889;28;20024;-86
2022/04/19 05:20:43;;;;;;;14.60;9.30;;;;;;;5.53;58.31;99193.31;5072081;28;20036;-86
2022/04/19 05:23:09;;;;;;;17.33;9.45;;;;;;;5.54;58.57;99197.56;5070429;28;20021;-87
2022/04/19 05:25:34;;;;;;;11.07;7.63;;;;;;;5.41;58.51;99196.28;5071962;28;20381;-86
2022/04/19 05:28:00;;;;;;;14.63;7.68;;;;;;;5.37;58.82;99202.44;5070306;28;20070;-86
2022/04/19 05:30:25;;;;;;;11.95;6.45;;;;;;;5.34;59.27;99210.28;5070258;28;20472;-85
2022/04/19 05:32:51;;;;;;;27.95;11.35;;;;;;;5.33;58.96;99206.88;5071649;28;20025;-87
2022/04/19 05:35:17;;;;;;;11.93;6.30;;;;;;;5.26;59.35;99213.94;5072105;28;20028;-86
2022/04/19 05:37:42;;;;;;;11.43;7.95;;;;;;;5.20;60.16;99213.31;5070527;28;20041;-86
2022/04/19 05:40:08;;;;;;;33.53;16.02;;;;;;;5.06;63.70;99212.91;5070195;28;20038;-86
2022/04/19 05:42:33;;;;;;;12.05;8.00;;;;;;;4.87;67.36;99217.78;5070199;28;20034;-85
2022/04/19 05:44:59;;;;;;;10.02;6.28;;;;;;;4.60;70.30;99209.16;5070435;28;20037;-86
2022/04/19 05:47:24;;;;;;;42.78;21.33;;;;;;;4.47;72.42;99219.81;5071829;28;20464;-86
2022/04/19 05:49:51;;;;;;;35.60;17.52;;;;;;;4.28;77.47;99205.75;5070345;28;20056;-80
2022/04/19 05:52:16;;;;;;;53.50;21.00;;;;;;;4.23;80.35;99181.84;5071866;28;20032;-80
2022/04/19 05:54:42;;;;;;;30.73;13.90;;;;;;;5.32;82.56;99181.09;5071738;28;20063;-80
2022/04/19 05:57:10;;;;;;;12.65;8.45;;;;;;;6.14;76.89;99187.78;5070005;28;20028;-79
2022/04/19 05:59:36;;;;;;;9.43;6.90;;;;;;;6.01;76.20;99184.78;5070193;28;20108;-80
2022/04/19 06:04:52;;;;;;;31.50;14.50;;;;;;;5.42;80.50;99190.22;5071846;28;20098;-81
2022/04/19 06:07:21;;;;;;;28.38;13.98;;;;;;;4.85;83.46;99192.03;5071438;28;20495;-80
2022/04/19 06:09:47;;;;;;;15.07;8.27;;;;;;;4.63;86.65;99199.56;5077901;28;20044;-80
2022/04/19 06:12:12;;;;;;;10.10;7.40;;;;;;;4.46;90.28;99188.91;5073441;28;20077;-79
2022/04/19 06:14:38;;;;;;;9.10;7.75;;;;;;;4.44;91.84;99194.09;5091762;28;20534;-80
2022/04/19 06:17:04;;;;;;;16.27;11.57;;;;;;;4.59;93.64;99174.75;5073390;28;20375;-79
2022/04/19 06:19:30;;;;;;;9.35;7.57;;;;;;;4.73;93.32;99195.00;5091556;28;20032;-80
2022/04/19 06:21:56;;;;;;;10.35;8.75;;;;;;;4.82;93.77;99175.81;5091250;28;20059;-80
2022/04/19 06:24:22;;;;;;;10.88;7.78;;;;;;;4.90;94.46;99181.56;5091540;28;20449;-79
2022/04/19 06:26:48;;;;;;;11.80;9.73;;;;;;;4.95;95.00;99175.38;5073474;28;20115;-80
2022/04/19 06:29:13;;;;;;;10.00;7.68;;;;;;;5.49;94.81;99200.31;5091255;28;20514;-80
2022/04/19 06:31:40;;;;;;;11.70;7.72;;;;;;;5.76;92.32;99192.50;5091867;28;20024;-80
2022/04/19 06:34:07;;;;;;;14.95;10.48;;;;;;;5.90;90.89;99192.03;5048286;28;20048;-80
2022/04/19 06:36:32;;;;;;;19.80;11.40;;;;;;;6.03;89.96;99206.28;5048786;28;20044;-80
2022/04/19 06:38:58;;;;;;;19.48;11.45;;;;;;;5.94;88.29;99191.06;5048829;28;20033;-80
2022/04/19 06:41:23;;;;;;;17.27;11.13;;;;;;;5.92;86.75;99206.63;5048751;28;20025;-79
2022/04/19 06:43:48;;;;;;;15.85;10.18;;;;;;;5.63;84.79;99193.84;5051326;28;20600;-80
2022/04/19 06:46:15;;;;;;;11.95;9.00;;;;;;;5.67;86.42;99201.44;5052195;28;20040;-81
2022/04/19 06:48:41;;;;;;;13.98;9.07;;;;;;;7.02;84.97;99196.53;5052503;28;20029;-80
2022/04/19 06:51:06;;;;;;;10.90;7.78;;;;;;;8.97;76.05;99165.59;5052168;28;20195;-81
2022/04/19 06:53:31;;;;;;;13.45;8.10;;;;;;;11.27;67.69;99177.88;5035617;28;20029;-81
2022/04/19 06:55:57;;;;;;;10.98;7.50;;;;;;;14.64;54.53;99188.66;5035401;28;20040;-80
2022/04/19 06:58:22;;;;;;;9.23;6.57;;;;;;;16.82;45.63;99178.44;5052256;28;20037;-81
2022/04/19 07:00:48;;;;;;;15.15;8.07;;;;;;;18.14;41.71;99188.63;5052388;28;20039;-81
2022/04/19 07:03:14;;;;;;;8.68;6.75;;;;;;;20.19;37.11;99180.88;5052022;28;20029;-81
2022/04/19 07:05:39;;;;;;;9.80;6.38;;;;;;;22.67;32.94;99188.97;5052239;28;20044;-81
2022/04/19 07:08:07;;;;;;;9.75;6.75;;;;;;;23.28;29.92;99188.81;5051887;28;20041;-81
2022/04/19 07:10:33;;;;;;;9.48;6.80;;;;;;;24.95;26.38;99176.56;5055660;28;20044;-81
2022/04/19 07:12:59;;;;;;;8.10;6.07;;;;;;;26.24;25.75;99190.88;5076234;28;20073;-79
2022/04/19 07:15:25;;;;;;;8.90;6.43;;;;;;;26.87;24.40;99184.97;5094539;28;20452;-79
2022/04/19 07:17:50;;;;;;;8.75;6.18;;;;;;;27.91;23.41;99173.06;5094512;28;20099;-79
2022/04/19 07:28:38;;;;;;;5.90;4.93;;;;;;;30.40;18.97;99182.19;5011990;28;20068;-79
2022/04/19 07:31:04;;;;;;;5.60;5.00;;;;;;;31.28;18.86;99177.06;5011926;28;20120;-79
2022/04/19 07:33:31;;;;;;;7.53;5.00;;;;;;;32.13;18.49;99171.22;5011873;28;20116;-79
2022/04/19 07:35:56;;;;;;;10.63;8.23;;;;;;;33.31;16.76;99175.41;5011652;28;20045;-80
2022/04/19 07:38:23;;;;;;;6.57;5.10;;;;;;;31.90;16.77;99188.00;5011799;28;20029;-79
2022/04/19 07:40:48;;;;;;;8.57;5.85;;;;;;;28.84;19.26;99179.78;5011518;28;20038;-78
2022/04/19 07:43:14;;;;;;;8.35;6.13;;;;;;;27.04;21.30;99177.53;5011265;28;20038;-78
2022/04/19 07:45:39;;;;;;;7.18;5.50;;;;;;;27.07;21.14;99173.69;5011864;28;20072;-80
2022/04/19 07:48:06;;;;;;;9.40;6.28;;;;;;;26.78;21.94;99185.25;4994891;28;20401;-80
2022/04/19 07:50:31;;;;;;;10.65;6.85;;;;;;;28.08;20.48;99183.25;5011467;28;20037;-80
2022/04/19 07:52:57;;;;;;;22.25;13.68;;;;;;;26.97;21.64;99182.00;5010790;28;20103;-80
2022/04/19 07:55:23;;;;;;;11.75;8.13;;;;;;;27.40;21.62;99181.25;5011147;28;20030;-80
2022/04/19 07:57:49;;;;;;;18.80;11.88;;;;;;;23.57;24.28;99175.03;4994938;28;20029;-80
2022/04/19 08:00:15;;;;;;;22.27;12.25;;;;;;;22.69;26.55;99185.31;5057598;28;20032;-80
2022/04/19 08:02:41;;;;;;;8.93;7.28;;;;;;;21.72;26.80;99184.56;5093747;28;20024;-79
2022/04/19 08:05:07;;;;;;;11.73;8.50;;;;;;;20.12;29.66;99174.47;5075315;28;20399;-82
2022/04/19 08:07:33;;;;;;;12.48;9.45;;;;;;;21.31;29.54;99184.16;5075401;28;20380;-81
2022/04/19 08:09:58;;;;;;;15.95;9.20;;;;;;;22.04;27.15;99185.78;5075005;28;20052;-78
2022/04/19 08:12:24;;;;;;;27.25;14.57;;;;;;;19.43;30.97;99171.09;5093313;28;20039;-78
2022/04/19 08:14:50;;;;;;;13.75;8.18;;;;;;;17.12;34.19;99179.56;5093537;28;20032;-79
2022/04/19 08:17:16;;;;;;;18.27;11.02;;;;;;;15.82;38.55;99166.09;5093310;28;20020;-78
2022/04/19 08:19:41;;;;;;;10.82;8.30;;;;;;;15.21;39.79;99174.06;5090157;28;20040;-79
2022/04/19 08:22:06;;;;;;;14.75;8.23;;;;;;;13.83;42.14;99183.75;5090027;28;20375;-79
2022/04/19 08:24:33;;;;;;;14.25;10.43;;;;;;;13.13;45.79;99190.97;5074235;28;20032;-79
2022/04/19 08:26:59;;;;;;;15.55;9.35;;;;;;;11.94;48.00;99173.97;5055974;28;20021;-79
2022/04/19 08:29:24;;;;;;;28.27;15.25;;;;;;;11.51;51.56;99199.09;5093435;28;20028;-79
2022/04/19 08:31:50;;;;;;;23.55;13.25;;;;;;;10.73;53.91;99199.09;5078715;28;20099;-82
2022/04/19 08:34:15;;;;;;;20.15;11.60;;;;;;;9.99;56.42;99196.91;5057494;28;20020;-80
2022/04/19 08:36:41;;;;;;;21.70;12.77;;;;;;;9.86;58.02;99195.88;5068233;28;20073;-79
2022/04/19 08:39:07;;;;;;;23.23;12.60;;;;;;;9.53;59.18;99188.00;5058442;28;20044;-79
2022/04/19 08:41:32;;;;;;;14.80;9.75;;;;;;;9.55;59.40;99201.75;5073179;28;20434;-79
2022/04/19 08:43:57;;;;;;;46.55;21.70;;;;;;;9.97;59.90;99213.50;5069793;28;20039;-79
2022/04/19 08:46:25;;;;;;;16.20;10.23;;;;;;;10.16;55.57;99183.03;5069925;28;20123;-79
2022/04/19 08:48:51;;;;;;;34.80;29.33;;;;;;;10.09;54.00;99212.88;5069926;28;20067;-79
2022/04/19 08:51:20;;;;;;;11.90;10.13;;;;;;;9.80;54.07;99223.94;5060362;28;20127;-79
2022/04/19 08:59:14;;;;;;;17.63;11.48;;;;;;;9.39;55.96;99234.59;5069757;28;20463;-79
2022/04/19 09:01:41;;;;;;;27.42;14.02;;;;;;;8.92;57.98;99241.13;5069664;28;20049;-79
2022/04/19 09:04:07;;;;;;;20.50;13.70;;;;;;;8.92;58.72;99229.91;5069528;28;20040;-79
2022/04/19 09:06:54;;;;;;;18.25;13.20;;;;;;;9.27;57.85;99237.78;5069035;28;20044;-78
2022/04/19 09:09:24;;;;;;;18.63;11.57;;;;;;;9.51;56.81;99226.19;5069436;28;20122;-79
2022/04/19 09:12:04;;;;;;;15.27;10.18;;;;;;;9.15;57.51;99241.84;5069490;28;20037;-79
2022/04/19 09:14:30;;;;;;;15.18;10.88;;;;;;;9.04;58.07;99238.88;5059601;28;20040;-78
2022/04/19 09:17:08;;;;;;;23.45;15.02;;;;;;;9.31;58.45;99234.97;5092259;28;20047;-78
2022/04/19 09:19:33;;;;;;;12.02;9.48;;;;;;;9.35;56.05;99222.66;5092525;28;20024;-79
2022/04/19 09:22:00;;;;;;;25.08;17.67;;;;;;;9.02;56.76;99238.97;5074231;28;20506;-81
2022/04/19 09:24:26;;;;;;;17.92;12.20;;;;;;;8.79;57.40;99237.41;5092518;28;20476;-80
2022/04/19 09:26:52;;;;;;;17.08;11.40;;;;;;;8.69;59.20;99225.78;5092312;28;20047;-79
2022/04/19 09:29:23;;;;;;;15.98;10.75;;;;;;;8.98;59.74;99225.28;5092068;28;20020;-80
2022/04/19 09:31:51;;;;;;;13.65;12.07;;;;;;;9.28;59.15;99236.91;5092281;28;20387;-80
2022/04/19 09:34:30;;;;;;;23.15;15.93;;;;;;;9.60;58.99;99225.75;5067812;28;20020;-79
2022/04/19 09:37:10;;;;;;;12.20;10.73;;;;;;;9.93;56.23;99244.03;5077795;28;20119;-79
2022/04/19 09:39:37;;;;;;;9.43;8.30;;;;;;;9.81;55.36;99234.25;5083125;28;20035;-79
2022/04/19 09:42:14;;;;;;;10.95;8.25;;;;;;;9.71;55.21;99240.84;5077146;28;20031;-79
2022/04/19 09:44:41;;;;;;;16.05;12.05;;;;;;;9.66;57.07;99233.25;5071847;28;20024;-79
2022/04/19 09:47:08;;;;;;;13.82;9.88;;;;;;;9.75;55.88;99229.38;5071627;28;20040;-79
2022/04/19 09:49:51;;;;;;;9.63;8.13;;;;;;;9.65;53.93;99236.78;5074345;28;20029;-80
2022/04/19 09:52:23;;;;;;;10.65;7.80;;;;;;;9.57;55.19;99241.53;5071429;28;20096;-80
2022/04/19 09:55:03;;;;;;;37.75;25.40;;;;;;;9.31;54.80;99232.34;5071524;28;20017;-80
2022/04/19 09:57:34;;;;;;;19.07;11.10;;;;;;;9.25;55.16;99233.50;5071709;28;20028;-79
2022/04/19 10:00:00;;;;;;;9.70;8.15;;;;;;;9.42;54.70;99253.50;5071668;28;20078;-78
2022/04/19 10:08:10;;;;;;;7.38;6.22;;;;;;;9.18;55.69;99257.25;5071815;28;20079;-79
2022/04/19 10:10:37;;;;;;;6.18;5.57;;;;;;;9.21;55.07;99264.91;5071383;28;20057;-79
2022/04/19 10:13:03;;;;;;;11.90;8.60;;;;;;;9.36;55.45;99268.56;5071252;28;20539;-78
2022/04/19 10:15:31;;;;;;;9.93;6.60;;;;;;;9.43;52.95;99249.13;5071201;28;20024;-78
2022/04/19 10:17:57;;;;;;;9.38;7.35;;;;;;;9.48;52.79;99262.75;5074509;28;20079;-78
2022/04/19 10:20:32;;;;;;;14.38;9.13;;;;;;;9.35;51.66;99262.50;5075366;28;20035;-78
2022/04/19 10:23:09;;;;;;;9.27;8.38;;;;;;;9.22;53.46;99249.25;5057388;28;20048;-79
2022/04/19 10:25:46;;;;;;;20.23;14.93;;;;;;;9.27;53.80;99261.16;5075322;28;20484;-78
2022/04/19 10:28:28;;;;;;;34.13;21.70;;;;;;;9.42;54.21;99263.88;5075114;28;20039;-79
2022/04/19 10:30:53;;;;;;;6.15;5.38;;;;;;;9.30;54.07;99254.06;5075405;28;20212;-79
2022/04/19 10:33:44;;;;;;;18.20;12.57;;;;;;;9.29;55.54;99268.00;5074991;28;20028;-79
2022/04/19 10:36:23;;;;;;;12.63;8.27;;;;;;;9.24;54.99;99272.56;5074630;28;20024;-79
2022/04/19 10:39:14;;;;;;;19.20;11.23;;;;;;;9.32;55.41;99275.66;5075205;28;20104;-79
2022/04/19 10:41:53;;;;;;;29.75;16.92;;;;;;;9.37;53.99;99271.06;5056994;28;20025;-79
2022/04/19 10:44:25;;;;;;;13.38;9.80;;;;;;;9.61;54.67;99286.41;5077550;28;20082;-79
2022/04/19 10:47:26;;;;;;;12.75;9.88;;;;;;;9.66;52.02;99272.28;5086162;28;20031;-79
2022/04/19 10:49:56;;;;;;;9.05;7.03;;;;;;;9.71;52.31;99270.28;5077339;28;20031;-78
2022/04/19 10:52:37;;;;;;;8.07;6.43;;;;;;;9.86;51.14;99283.44;5077607;28;20020;-79
2022/04/19 10:55:08;;;;;;;8.70;6.97;;;;;;;10.13;52.44;99276.03;5094929;28;20035;-79
2022/04/19 10:58:09;;;;;;;9.57;6.93;;;;;;;10.23;51.54;99283.28;5095139;28;20038;-79
2022/04/19 11:00:35;;;;;;;9.50;6.65;;;;;;;10.23;51.81;99285.88;5094424;28;20028;-79
2022/04/19 11:03:02;;;;;;;7.80;6.85;;;;;;;10.21;51.50;99282.53;5056515;28;20511;-79
2022/04/19 11:05:47;;;;;;;7.40;6.60;;;;;;;10.10;51.65;99295.22;5074193;28;20103;-79
2022/04/19 11:08:29;;;;;;;11.77;6.55;;;;;;;9.84;52.68;99286.13;5074461;28;20125;-79
2022/04/19 11:11:06;;;;;;;6.68;5.97;;;;;;;9.74;53.20;99301.34;5074323;28;20131;-79
2022/04/19 11:13:36;;;;;;;12.25;6.85;;;;;;;9.81;52.99;99299.28;5074085;28;20024;-79
2022/04/19 11:16:05;;;;;;;7.13;6.25;;;;;;;9.82;52.51;99281.91;5074586;28;20107;-79
2022/04/19 11:18:33;;;;;;;8.85;6.35;;;;;;;9.66;52.47;99277.47;5081772;28;20020;-79
2022/04/19 11:21:03;;;;;;;8.40;6.07;;;;;;;9.71;53.14;99287.66;5094635;28;20028;-79
2022/04/19 11:23:40;;;;;;;71.38;27.85;;;;;;;9.56;53.35;99281.41;5094294;28;20114;-79
2022/04/19 11:26:08;;;;;;;92.35;38.40;;;;;;;9.39;53.91;99300.41;5094454;28;20024;-79
2022/04/19 11:28:34;;;;;;;40.65;20.27;;;;;;;9.20;54.56;99315.19;5093601;28;20028;-79
2022/04/19 11:31:00;;;;;;;17.27;9.75;;;;;;;9.05;55.11;99324.53;5094553;28;20059;-79
2022/04/19 11:33:34;;;;;;;10.80;7.47;;;;;;;8.89;56.69;99300.16;5076044;28;20062;-79
2022/04/19 11:36:01;;;;;;;37.63;18.95;;;;;;;9.05;57.01;99316.72;5094337;28;20039;-79
2022/04/19 11:38:31;;;;;;;15.90;11.32;;;;;;;8.86;57.66;99316.75;5094187;28;20065;-80
2022/04/19 11:46:45;;;;;;;13.13;10.27;;;;;;;8.21;61.84;99312.63;5074031;28;20407;-80
2022/04/19 11:49:25;;;;;;;12.85;9.75;;;;;;;8.21;61.56;99325.59;5073461;28;20052;-80
2022/04/19 11:51:52;;;;;;;12.25;9.40;;;;;;;8.23;61.14;99332.41;5074844;28;20112;-79
2022/04/19 11:54:26;;;;;;;17.02;11.18;;;;;;;8.33;61.79;99325.06;5094214;28;20054;-80
2022/04/19 11:56:59;;;;;;;12.15;9.05;;;;;;;8.32;62.12;99318.22;5094058;28;20484;-80
2022/04/19 11:59:26;;;;;;;14.15;10.60;;;;;;;8.38;61.81;99320.56;5093696;28;20036;-80
2022/04/19 12:01:52;;;;;;;10.23;8.80;;;;;;;8.57;61.11;99333.59;5093656;28;20020;-80
2022/04/19 12:04:17;;;;;;;17.83;10.57;;;;;;;8.68;61.05;99318.41;5093780;28;20020;-80
2022/04/19 12:06:52;;;;;;;15.35;8.45;;;;;;;9.02;58.91;99324.69;5093855;28;20024;-80
2022/04/19 12:09:19;;;;;;;10.77;7.63;;;;;;;8.89;58.95;99333.91;5093404;28;20027;-80
2022/04/19 12:11:46;;;;;;;16.40;10.98;;;;;;;8.82;59.77;99329.94;5075431;28;20032;-80